Sinotrans Manila — VRQA7 — position and weather

sailwx.info

Track history (hours):
 
Tides and Currents Weather Stations Pressure Air Temp Water Temp Dewpoint Dewpoint Depression Visibility Wind Speed Wind Dir Waves Ship Positions

Sinotrans Manila

Last reported at 2017-Dec-07 05:49 UTC. Time now 2017-Dec-11 19:09 UTC.
Position N 34°07' E 138°04'.

Length 172 m; draft 7 m.

Type: Ship (hazmat cat A). MMSI: 477112600.

Date/timePositionNaut miles runAvg speedWind from/ knotsBaromVisibWave heightAir tempDewpointWater temp
2017-Dec-07 05:49N 34°07' E 138°04'515.1
2017-Dec-07 05:30N 34°09' E 138°09'814.7
2017-Dec-07 04:58N 34°13' E 138°18'1014.8
2017-Dec-07 04:19N 34°17' E 138°28'514.8
2017-Dec-07 04:00N 34°19' E 138°33'814.4
2017-Dec-07 03:29N 34°23' E 138°41'714.7
2017-Dec-07 02:59N 34°26' E 138°49'714.4
2017-Dec-07 02:31N 34°29' E 138°56'713.4
2017-Dec-07 01:59N 34°34' E 139°03'814.0
2017-Dec-07 01:26N 34°40' E 139°08'714.6
2017-Dec-07 00:56N 34°46' E 139°13'714.8
2017-Dec-07 00:30N 34°51' E 139°18'714.8
2017-Dec-07 00:00N 34°55' E 139°26'815.2
2017-Dec-06 23:30N 34°59' E 139°33'815.8
2017-Dec-06 23:00N 35°04' E 139°41'815.3
2017-Dec-06 22:30N 35°11' E 139°45'510.4
2017-Dec-06 22:00N 35°16' E 139°45'612.7
2017-Dec-06 21:31N 35°22' E 139°42'2 4.4
2017-Dec-06 21:01N 35°24' E 139°41'  
Track history (hours):
 
Tides and Currents Weather Stations Pressure Air Temp Water Temp Dewpoint Dewpoint Depression Visibility Wind Speed Wind Dir Waves Ship Positions

Sinotrans Manila

Last reported at 2017-Dec-07 05:49 UTC. Time now 2017-Dec-11 19:09 UTC.
Position N 34°07' E 138°04'.

Length 172 m; draft 7 m.

Type: Ship (hazmat cat A). MMSI: 477112600.

Date/timePositionNaut miles runAvg speedWind from/ knotsBaromVisibWave heightAir tempDewpointWater temp
2017-Dec-07 05:49N 34°07' E 138°04'515.1
2017-Dec-07 05:30N 34°09' E 138°09'814.7
2017-Dec-07 04:58N 34°13' E 138°18'1014.8
2017-Dec-07 04:19N 34°17' E 138°28'514.8
2017-Dec-07 04:00N 34°19' E 138°33'814.4
2017-Dec-07 03:29N 34°23' E 138°41'714.7
2017-Dec-07 02:59N 34°26' E 138°49'714.4
2017-Dec-07 02:31N 34°29' E 138°56'713.4
2017-Dec-07 01:59N 34°34' E 139°03'814.0
2017-Dec-07 01:26N 34°40' E 139°08'714.6
2017-Dec-07 00:56N 34°46' E 139°13'714.8
2017-Dec-07 00:30N 34°51' E 139°18'714.8
2017-Dec-07 00:00N 34°55' E 139°26'815.2
2017-Dec-06 23:30N 34°59' E 139°33'815.8
2017-Dec-06 23:00N 35°04' E 139°41'815.3
2017-Dec-06 22:30N 35°11' E 139°45'510.4
2017-Dec-06 22:00N 35°16' E 139°45'612.7
2017-Dec-06 21:31N 35°22' E 139°42'2 4.4
2017-Dec-06 21:01N 35°24' E 139°41'  

Dump ship's entire track history